Time;durP1;ratioP1;P1;durP2;ratioP2;P2;SDS_P1;SDS_P2;PMS_P1;PMS_P2;Temp;Humidity;BMP_temperature;BMP_pressure;BME280_temperature;BME280_humidity;BME280_pressure;Samples;Min_cycle;Max_cycle;Signal;HPM_P1;HPM_P2
2024/02/08 00:02:41;;;;;;;3.25;1.83;;;;;;;17.33;51.94;100212.91;10414752;28;20022;-58
2024/02/08 00:07:41;;;;;;;3.90;1.58;;;;;;;17.33;52.01;100229.00;10420638;28;20025;-58
2024/02/08 00:12:43;;;;;;;2.53;1.33;;;;;;;17.36;51.92;100225.72;10422147;28;20029;-58
2024/02/08 00:17:46;;;;;;;5.18;2.42;;;;;;;17.37;51.51;100226.50;10414646;28;20299;-58
2024/02/08 00:22:49;;;;;;;3.15;1.50;;;;;;;17.40;51.09;100221.34;10414236;28;20020;-58
2024/02/08 00:27:52;;;;;;;2.85;1.98;;;;;;;17.40;52.21;100217.84;10419736;28;20049;-58
2024/02/08 00:32:52;;;;;;;3.33;1.60;;;;;;;17.42;52.24;100219.16;10417442;28;20504;-59
2024/02/08 00:37:52;;;;;;;2.87;1.40;;;;;;;17.43;51.30;100215.41;10412447;28;20028;-58
2024/02/08 00:42:53;;;;;;;3.53;1.60;;;;;;;17.42;51.88;100215.69;10413407;28;20651;-58
2024/02/08 00:47:58;;;;;;;4.32;1.33;;;;;;;17.35;52.25;100215.28;10413613;28;20280;-58
2024/02/08 00:52:59;;;;;;;2.60;1.40;;;;;;;17.37;52.11;100223.81;10413131;28;20032;-58
2024/02/08 00:58:00;;;;;;;1.95;1.25;;;;;;;17.35;52.44;100232.16;10413462;28;20036;-58
2024/02/08 01:03:00;;;;;;;2.78;1.20;;;;;;;17.34;52.28;100227.91;10419579;28;20033;-58
2024/02/08 01:08:01;;;;;;;2.97;1.50;;;;;;;17.34;51.07;100225.22;10427701;28;20037;-58
2024/02/08 01:13:01;;;;;;;4.10;1.67;;;;;;;17.35;50.97;100217.97;10415648;28;20340;-59
2024/02/08 01:18:03;;;;;;;2.63;1.50;;;;;;;17.38;50.74;100204.75;10412862;28;20052;-58
2024/02/08 01:23:04;;;;;;;3.75;1.58;;;;;;;17.41;51.77;100214.13;10411762;28;20075;-59
2024/02/08 01:28:07;;;;;;;2.25;1.20;;;;;;;17.46;51.74;100204.06;10412032;28;20052;-58
2024/02/08 01:33:10;;;;;;;2.75;1.33;;;;;;;17.49;50.72;100208.03;10411433;28;20033;-58
2024/02/08 01:38:13;;;;;;;3.05;1.38;;;;;;;17.47;51.58;100194.94;10411541;28;20030;-58
2024/02/08 01:43:13;;;;;;;2.05;1.10;;;;;;;17.49;50.65;100181.22;10411202;28;20021;-59
2024/02/08 01:48:15;;;;;;;3.00;1.52;;;;;;;17.45;50.45;100193.66;10411199;28;20443;-58
2024/02/08 01:53:18;;;;;;;2.90;1.75;;;;;;;17.46;50.45;100209.44;10409377;28;20112;-58
2024/02/08 01:58:21;;;;;;;2.45;1.25;;;;;;;17.46;52.08;100193.34;10411024;28;20060;-58
2024/02/08 02:03:23;;;;;;;2.50;1.20;;;;;;;17.44;51.74;100192.84;10410217;28;20029;-59
2024/02/08 02:08:33;;;;;;;2.92;1.13;;;;;;;17.40;51.95;100199.09;10421647;28;20021;-58
2024/02/08 02:13:37;;;;;;;3.10;1.05;;;;;;;17.39;51.49;100190.25;10409002;28;20421;-58
2024/02/08 02:18:39;;;;;;;2.35;1.33;;;;;;;17.39;51.49;100174.19;10409609;28;20041;-58
2024/02/08 02:23:41;;;;;;;1.67;0.88;;;;;;;17.42;50.96;100164.78;10408998;28;20029;-58
2024/02/08 02:28:41;;;;;;;1.40;0.90;;;;;;;17.44;50.38;100170.63;10409744;28;20461;-58
2024/02/08 02:33:43;;;;;;;2.00;0.90;;;;;;;17.42;50.42;100167.47;10412025;28;20025;-59
2024/02/08 02:38:45;;;;;;;3.15;1.05;;;;;;;17.43;50.87;100161.78;10409536;28;20021;-58
2024/02/08 02:43:45;;;;;;;2.08;1.10;;;;;;;17.41;50.80;100166.66;10408850;28;20040;-57
2024/02/08 02:48:45;;;;;;;2.80;1.10;;;;;;;17.43;51.63;100163.69;10409127;28;20354;-58
2024/02/08 02:53:46;;;;;;;1.97;0.80;;;;;;;17.42;51.73;100154.84;10408727;28;20063;-58
2024/02/08 02:58:46;;;;;;;1.97;0.77;;;;;;;17.41;50.52;100163.19;10409027;28;20736;-58
2024/02/08 03:03:47;;;;;;;1.90;0.80;;;;;;;17.40;50.24;100159.69;10427315;28;20271;-58
2024/02/08 03:08:47;;;;;;;1.55;0.88;;;;;;;17.40;50.55;100153.53;10424073;28;20691;-58
2024/02/08 03:13:49;;;;;;;1.27;0.73;;;;;;;17.40;51.38;100143.63;10449723;28;20033;-58
2024/02/08 03:18:49;;;;;;;2.75;0.95;;;;;;;17.36;50.52;100149.88;10449629;28;20599;-58
2024/02/08 03:23:50;;;;;;;1.40;0.70;;;;;;;17.34;50.45;100138.69;10449099;28;20031;-58
2024/02/08 03:28:51;;;;;;;2.35;0.70;;;;;;;17.30;50.81;100127.78;10444114;28;20029;-58
2024/02/08 03:33:53;;;;;;;1.75;0.77;;;;;;;17.30;51.08;100135.81;10410866;28;20432;-58
2024/02/08 03:38:54;;;;;;;2.20;1.30;;;;;;;17.27;50.73;100131.03;10416241;28;20036;-58
2024/02/08 03:43:54;;;;;;;1.55;0.82;;;;;;;17.29;51.25;100120.84;10415757;28;20406;-59
2024/02/08 03:48:56;;;;;;;3.08;1.67;;;;;;;17.25;50.60;100117.94;10414499;28;20095;-58
2024/02/08 03:54:00;;;;;;;1.75;0.80;;;;;;;17.28;51.35;100113.88;10415560;28;20524;-58
2024/02/08 03:59:07;;;;;;;2.78;0.90;;;;;;;17.31;50.33;100115.97;10415524;28;20029;-59
2024/02/08 04:04:15;;;;;;;1.38;0.80;;;;;;;17.28;51.08;100113.88;10414853;28;20063;-58
2024/02/08 04:09:33;;;;;;;2.30;0.80;;;;;;;17.29;51.19;100120.03;10428347;28;20026;-59
2024/02/08 04:57:07;;;;;;;3.75;0.80;;;;;;;17.49;51.09;100055.25;10427020;28;20468;-59
2024/02/08 05:02:09;;;;;;;2.20;0.73;;;;;;;17.41;51.44;100045.28;10396328;28;20033;-59
2024/02/08 05:07:10;;;;;;;1.88;0.70;;;;;;;17.37;51.43;100068.41;10408754;28;20021;-57
2024/02/08 05:12:10;;;;;;;1.35;0.57;;;;;;;17.37;51.99;100073.75;10421427;28;20432;-58
2024/02/08 05:17:13;;;;;;;1.58;0.60;;;;;;;17.37;51.28;100079.13;10424856;28;20055;-59
2024/02/08 05:22:14;;;;;;;2.10;0.60;;;;;;;17.34;51.22;100061.75;10444086;28;20044;-58
2024/02/08 05:27:14;;;;;;;2.00;1.00;;;;;;;17.34;51.39;100079.72;10426123;28;20074;-57
2024/02/08 05:32:14;;;;;;;2.10;0.50;;;;;;;17.31;51.30;100080.34;10444122;28;20284;-57
2024/02/08 05:37:15;;;;;;;1.30;0.63;;;;;;;17.30;50.74;100076.06;10408545;28;20276;-57
2024/02/08 05:42:15;;;;;;;1.67;0.87;;;;;;;17.32;51.47;100071.19;10408652;28;20631;-56
2024/02/08 05:47:19;;;;;;;1.83;0.60;;;;;;;17.32;51.73;100063.16;10407712;28;20290;-58
2024/02/08 05:52:20;;;;;;;1.55;0.80;;;;;;;17.31;50.50;100065.06;10407607;28;20057;-58
2024/02/08 05:57:21;;;;;;;1.65;0.65;;;;;;;17.25;50.45;100045.59;10407135;28;20168;-58
2024/02/08 06:02:24;;;;;;;1.33;0.60;;;;;;;17.28;50.90;100049.56;10407958;28;20033;-62
2024/02/08 06:07:29;;;;;;;5.75;0.80;;;;;;;17.45;51.28;100047.03;10409819;28;20102;-59
2024/02/08 06:12:51;;;;;;;2.00;0.75;;;;;;;17.41;50.95;100047.94;10415177;28;20104;-58
2024/02/08 06:17:57;;;;;;;1.45;0.70;;;;;;;17.37;52.04;100042.38;10406325;28;20048;-59
2024/02/08 06:23:01;;;;;;;5.70;1.10;;;;;;;17.44;52.25;100040.09;10407465;28;20353;-59
2024/02/08 06:28:03;;;;;;;2.50;0.77;;;;;;;17.43;52.90;100035.84;10406285;28;20079;-59
2024/02/08 06:33:24;;;;;;;2.65;1.10;;;;;;;17.44;51.86;100033.94;10411835;28;20034;-59
2024/02/08 06:38:51;;;;;;;6.38;1.55;;;;;;;17.50;51.40;100051.47;10421534;28;20091;-56
2024/02/08 07:37:18;;;;;;;4.40;1.07;;;;;;;17.26;50.12;99955.31;10414123;28;20037;-58
2024/02/08 07:42:32;;;;;;;5.85;1.00;;;;;;;17.28;50.48;99949.63;10415382;28;20048;-58
2024/02/08 07:47:35;;;;;;;5.07;1.35;;;;;;;17.29;51.01;99946.69;10414560;28;20052;-58
2024/02/08 07:52:45;;;;;;;3.90;1.13;;;;;;;17.24;51.37;99936.84;10414364;28;20030;-58
2024/02/08 07:57:57;;;;;;;2.53;0.98;;;;;;;17.18;51.65;99922.00;10413994;28;20064;-57
2024/02/08 08:03:09;;;;;;;6.55;1.13;;;;;;;17.16;50.11;99932.22;10414395;28;20029;-57
2024/02/08 08:08:26;;;;;;;3.13;1.27;;;;;;;17.21;50.76;99932.13;10423141;28;20029;-56
2024/02/08 08:13:50;;;;;;;5.50;1.75;;;;;;;17.18;51.33;99921.22;10415650;28;20033;-57
2024/02/08 08:18:46;;;;;;;3.83;1.70;;;;;;;17.17;50.44;99930.38;10442226;28;20045;-57
2024/02/08 08:23:59;;;;;;;2.30;1.40;;;;;;;17.18;51.40;99922.00;10454813;28;20017;-57
2024/02/08 08:29:02;;;;;;;7.28;2.22;;;;;;;17.18;50.36;99921.22;10454523;28;20031;-57
2024/02/08 08:35:37;;;;;;;3.47;1.58;;;;;;;17.19;51.13;99902.16;10419858;28;20032;-56
2024/02/08 08:39:46;;;;;;;6.03;2.05;;;;;;;17.19;50.82;99894.13;10440234;28;20117;-55
2024/02/08 08:44:48;;;;;;;3.50;2.03;;;;;;;17.14;50.89;99880.84;10454007;28;20472;-56
2024/02/08 08:49:50;;;;;;;4.07;2.45;;;;;;;17.18;50.67;99875.69;10453511;28;20079;-57
2024/02/08 08:54:57;;;;;;;4.35;2.13;;;;;;;17.16;50.82;99865.25;10453474;28;20029;-56
2024/02/08 08:59:59;;;;;;;4.60;2.05;;;;;;;17.14;50.51;99853.25;10452912;28;20048;-58
2024/02/08 09:05:02;;;;;;;5.53;2.40;;;;;;;17.17;50.28;99856.16;10443571;28;20029;-58
2024/02/08 09:10:04;;;;;;;3.22;1.60;;;;;;;17.15;51.66;99847.59;10436218;28;20444;-56
2024/02/08 09:15:20;;;;;;;4.50;2.00;;;;;;;17.15;51.13;99836.09;10452889;28;20452;-57
2024/02/08 09:20:21;;;;;;;2.72;1.45;;;;;;;17.17;51.67;99839.28;10452289;28;20046;-58
2024/02/08 09:25:22;;;;;;;3.50;2.22;;;;;;;17.13;50.32;99830.25;10452744;28;20091;-55
2024/02/08 09:30:52;;;;;;;4.97;1.92;;;;;;;17.13;50.47;99820.34;10446430;28;20064;-57
2024/02/08 09:35:43;;;;;;;4.90;1.90;;;;;;;17.11;51.34;99817.19;10410310;28;20042;-58
2024/02/08 09:40:45;;;;;;;3.08;2.08;;;;;;;17.09;51.13;99805.97;10410176;28;20029;-58
2024/02/08 09:46:01;;;;;;;5.13;2.03;;;;;;;17.06;51.60;99798.56;10410372;28;20033;-57
2024/02/08 09:51:11;;;;;;;5.55;2.08;;;;;;;17.07;51.44;99788.66;10437812;28;20024;-57
2024/02/08 09:56:25;;;;;;;4.30;2.10;;;;;;;17.11;50.53;99789.59;10451070;28;20048;-56
2024/02/08 10:01:35;;;;;;;4.43;2.65;;;;;;;17.14;51.14;99780.94;10449287;28;20021;-58
2024/02/08 10:06:45;;;;;;;5.07;2.05;;;;;;;17.13;51.21;99771.34;10442084;28;20033;-58
2024/02/08 10:11:54;;;;;;;3.30;1.88;;;;;;;17.12;51.49;99753.69;10447779;28;20028;-58
2024/02/08 10:17:00;;;;;;;3.17;1.70;;;;;;;17.06;51.85;99736.19;10449884;28;20045;-58
2024/02/08 10:22:04;;;;;;;3.60;2.25;;;;;;;17.04;50.71;99723.06;10450178;28;20036;-57
2024/02/08 10:27:06;;;;;;;5.10;1.92;;;;;;;17.07;51.49;99730.50;10448955;28;20052;-58
2024/02/08 10:32:07;;;;;;;4.22;1.85;;;;;;;17.10;51.62;99721.84;10429531;28;20032;-58
2024/02/08 10:37:46;;;;;;;4.20;1.93;;;;;;;17.11;50.73;99701.22;10408171;28;20035;-58
2024/02/08 10:42:38;;;;;;;8.07;2.45;;;;;;;17.11;51.84;99703.91;10407648;28;20272;-57
2024/02/08 10:47:41;;;;;;;4.13;2.00;;;;;;;17.13;51.18;99682.94;10407044;28;20040;-57
2024/02/08 10:52:48;;;;;;;3.35;1.80;;;;;;;17.11;50.31;99680.56;10435676;28;20047;-57
2024/02/08 10:58:21;;;;;;;3.45;1.67;;;;;;;17.10;50.35;99659.47;10448003;28;20031;-58
2024/02/08 11:03:42;;;;;;;4.03;1.80;;;;;;;17.10;51.78;99652.22;10448011;28;20028;-57
2024/02/08 11:09:27;;;;;;;5.18;1.90;;;;;;;17.10;50.95;99662.16;10448434;28;20017;-57
2024/02/08 11:14:11;;;;;;;2.97;1.70;;;;;;;17.12;51.15;99633.94;10401751;28;20369;-58
2024/02/08 11:19:16;;;;;;;3.88;2.38;;;;;;;17.09;51.32;99677.44;10406016;28;20068;-57
2024/02/08 11:24:38;;;;;;;3.28;1.70;;;;;;;17.10;51.34;99662.16;10406726;28;20029;-58
2024/02/08 11:29:47;;;;;;;3.83;1.60;;;;;;;17.09;50.09;99617.72;10406574;28;20055;-57
2024/02/08 11:34:54;;;;;;;3.65;1.92;;;;;;;17.12;51.77;99646.53;10407351;28;20165;-58
2024/02/08 11:39:59;;;;;;;4.93;1.55;;;;;;;17.08;51.13;99605.44;10406970;28;20113;-57
2024/02/08 11:45:01;;;;;;;4.20;1.70;;;;;;;17.12;50.20;99643.88;10406839;28;20031;-57
2024/02/08 11:50:01;;;;;;;3.88;1.90;;;;;;;17.10;51.87;99622.75;10406858;28;20025;-57
2024/02/08 11:55:08;;;;;;;3.23;1.60;;;;;;;17.08;50.17;99605.44;10409131;28;20268;-57
2024/02/08 12:00:16;;;;;;;4.85;2.08;;;;;;;17.05;50.73;99622.09;10414360;28;20268;-57
2024/02/08 12:05:19;;;;;;;2.88;1.70;;;;;;;17.08;51.82;99626.84;10414493;28;20069;-58
2024/02/08 12:10:22;;;;;;;3.78;1.50;;;;;;;17.10;50.31;99611.25;10440860;28;20025;-56
2024/02/08 12:15:23;;;;;;;3.47;1.55;;;;;;;17.10;51.49;99611.25;10455177;28;20029;-58
2024/02/08 12:20:24;;;;;;;4.03;2.03;;;;;;;17.10;50.03;99606.69;10454360;28;20032;-58
2024/02/08 12:25:27;;;;;;;3.75;1.75;;;;;;;17.10;51.42;99598.66;10455090;28;20024;-57
2024/02/08 12:30:29;;;;;;;3.47;2.08;;;;;;;17.10;51.56;99565.72;10460098;28;20032;-57
2024/02/08 12:35:30;;;;;;;3.00;1.67;;;;;;;17.10;51.42;99546.97;10425444;28;20550;-57
2024/02/08 12:40:32;;;;;;;3.40;1.65;;;;;;;17.10;51.21;99528.22;10411470;28;20041;-55
2024/02/08 12:45:32;;;;;;;3.13;1.70;;;;;;;17.13;50.66;99512.31;10412975;28;20036;-57
2024/02/08 12:50:37;;;;;;;3.77;1.50;;;;;;;17.09;50.05;99492.63;10412285;28;20547;-57
2024/02/08 12:55:38;;;;;;;2.30;1.67;;;;;;;17.09;50.49;99497.19;10412290;28;20681;-56
2024/02/08 13:00:38;;;;;;;2.88;1.60;;;;;;;17.11;51.13;99487.75;10411835;28;20033;-56
2024/02/08 13:05:40;;;;;;;3.30;2.00;;;;;;;17.11;50.01;99477.03;10411999;28;20040;-57
2024/02/08 13:10:40;;;;;;;3.38;2.20;;;;;;;17.12;51.06;99477.81;10423127;28;20291;-57
2024/02/08 13:15:41;;;;;;;5.07;1.53;;;;;;;17.11;51.79;99458.28;10411587;28;20045;-57
2024/02/08 13:20:42;;;;;;;3.47;1.65;;;;;;;17.10;50.80;99451.34;10411009;28;20276;-57
2024/02/08 13:25:43;;;;;;;3.65;1.52;;;;;;;17.11;50.57;99425.34;10411098;28;20500;-57
2024/02/08 13:30:48;;;;;;;4.17;1.70;;;;;;;17.10;50.78;99405.03;10412157;28;20017;-58
2024/02/08 13:35:48;;;;;;;3.55;1.83;;;;;;;17.10;50.63;99383.59;10410467;28;20292;-57
2024/02/08 13:40:52;;;;;;;2.33;1.45;;;;;;;17.12;50.95;99376.03;10410000;28;20029;-58
2024/02/08 13:45:53;;;;;;;3.58;1.30;;;;;;;17.10;50.42;99364.88;10408841;28;20673;-58
2024/02/08 13:50:55;;;;;;;2.50;1.50;;;;;;;17.09;51.64;99357.94;10408864;28;20028;-56
2024/02/08 13:55:58;;;;;;;3.97;1.55;;;;;;;17.09;51.81;99344.53;10409921;28;20272;-58
2024/02/08 14:00:59;;;;;;;3.47;1.52;;;;;;;17.08;51.52;99318.88;10409709;28;20033;-56
2024/02/08 14:06:00;;;;;;;2.67;1.50;;;;;;;17.13;50.71;99316.00;10409848;28;20021;-58
2024/02/08 14:11:01;;;;;;;1.95;1.13;;;;;;;17.10;50.85;99313.97;10421065;28;20033;-57
2024/02/08 14:16:13;;;;;;;2.53;1.65;;;;;;;17.06;50.83;99294.31;10408789;28;20048;-57
2024/02/08 14:21:19;;;;;;;2.35;1.23;;;;;;;17.11;51.67;99283.41;10408875;28;20090;-56
2024/02/08 14:26:41;;;;;;;3.63;1.52;;;;;;;17.08;51.56;99284.84;10408151;28;20492;-57
2024/02/08 14:31:41;;;;;;;3.63;1.48;;;;;;;17.09;51.47;99266.88;10421923;28;20610;-57
2024/02/08 14:36:42;;;;;;;1.75;1.02;;;;;;;17.09;50.90;99248.13;10408558;28;20079;-57
2024/02/08 14:41:43;;;;;;;2.30;1.27;;;;;;;17.04;51.99;99246.41;10406971;28;20033;-55
2024/02/08 14:46:46;;;;;;;1.67;0.80;;;;;;;17.08;51.26;99241.22;10408154;28;20017;-58
2024/02/08 14:51:50;;;;;;;1.95;0.65;;;;;;;17.05;51.00;99210.50;10407888;28;20286;-57
2024/02/08 14:57:03;;;;;;;1.73;0.95;;;;;;;17.03;50.31;99183.25;10408149;28;20480;-58
2024/02/08 15:02:13;;;;;;;2.00;1.00;;;;;;;17.06;51.61;99168.44;10407724;28;20386;-56
2024/02/08 15:12:32;;;;;;;1.58;0.90;;;;;;;17.08;51.45;99142.13;10416939;28;20015;-58
2024/02/08 15:17:42;;;;;;;2.28;0.93;;;;;;;17.05;51.59;99130.19;10407322;28;20049;-57
2024/02/08 15:43:16;;;;;;;1.27;0.85;;;;;;;17.08;50.95;99107.31;10414074;28;20041;-55
2024/02/08 15:48:18;;;;;;;1.90;0.90;;;;;;;17.08;50.43;99092.03;10414429;28;20465;-57
2024/02/08 15:53:18;;;;;;;2.78;0.93;;;;;;;17.08;51.29;99077.84;10414069;28;20296;-57
2024/02/08 15:58:29;;;;;;;2.40;0.82;;;;;;;17.06;49.88;99080.88;10415098;28;20025;-58
2024/02/08 16:03:30;;;;;;;1.92;1.17;;;;;;;17.06;50.92;99066.69;10412385;28;20040;-57
2024/02/08 16:08:33;;;;;;;1.35;0.88;;;;;;;17.05;49.90;99070.44;10425358;28;20384;-58
2024/02/08 16:13:42;;;;;;;1.75;0.60;;;;;;;17.10;50.02;99059.56;10414103;28;20542;-57
2024/02/08 16:18:49;;;;;;;1.42;0.77;;;;;;;17.11;50.64;99061.13;10413470;28;20041;-57
2024/02/08 16:23:51;;;;;;;1.83;0.88;;;;;;;17.03;51.02;99054.72;10420381;28;20030;-58
2024/02/08 16:28:52;;;;;;;3.25;0.73;;;;;;;17.17;50.51;99054.50;10414433;28;20477;-58
2024/02/08 16:38:56;;;;;;;8.93;2.33;;;;;;;17.24;52.34;99060.09;10416020;28;20547;-57
2024/02/08 16:44:03;;;;;;;11.85;2.25;;;;;;;17.34;54.17;99043.63;10419002;28;20272;-57
2024/02/08 16:49:06;;;;;;;10.38;2.78;;;;;;;17.32;55.27;99037.03;10418420;28;20385;-57
2024/02/08 16:54:29;;;;;;;10.07;2.35;;;;;;;17.29;56.34;99032.34;10422188;28;20079;-57
2024/02/08 16:59:44;;;;;;;8.25;2.03;;;;;;;17.65;55.97;99018.31;10450873;28;20067;-57
2024/02/08 17:04:48;;;;;;;10.93;3.30;;;;;;;17.71;54.55;99017.00;10453206;28;20023;-58
2024/02/08 17:09:50;;;;;;;10.38;2.72;;;;;;;17.65;55.08;99013.75;10444809;28;20025;-57
2024/02/08 17:14:53;;;;;;;11.40;2.08;;;;;;;17.56;54.63;99017.59;10412272;28;20059;-58
2024/02/08 17:20:02;;;;;;;14.98;2.88;;;;;;;17.56;55.25;99004.22;10428294;28;20048;-57
2024/02/08 17:25:05;;;;;;;18.27;3.50;;;;;;;17.52;54.38;98999.50;10412097;28;20024;-58
2024/02/08 17:30:12;;;;;;;13.35;2.92;;;;;;;17.34;54.17;98997.31;10425621;28;20040;-58
2024/02/08 17:35:15;;;;;;;9.85;2.20;;;;;;;17.23;54.08;98994.25;10430729;28;20380;-58
2024/02/08 17:40:19;;;;;;;8.25;2.45;;;;;;;17.13;55.60;98989.28;10439622;28;20025;-58
2024/02/08 17:45:20;;;;;;;7.95;2.53;;;;;;;17.04;54.47;98983.19;10441609;28;20029;-58
2024/02/08 17:50:29;;;;;;;7.38;1.83;;;;;;;16.99;54.72;98956.63;10410613;28;20103;-58
2024/02/08 17:55:35;;;;;;;4.50;2.08;;;;;;;16.95;54.03;98972.56;10410155;28;20018;-58
2024/02/08 18:00:40;;;;;;;3.85;1.85;;;;;;;16.92;54.69;98971.31;10411102;28;20396;-59
2024/02/08 18:05:40;;;;;;;9.05;1.88;;;;;;;17.02;55.85;98964.78;10411755;28;20033;-60
2024/02/08 18:10:43;;;;;;;5.67;1.70;;;;;;;17.03;55.84;98954.88;10427913;28;20041;-58
2024/02/08 18:15:50;;;;;;;9.68;1.90;;;;;;;17.06;56.61;98938.94;10425613;28;20379;-59
2024/02/08 18:21:04;;;;;;;8.77;2.15;;;;;;;17.14;56.68;98932.72;10433705;28;20068;-59
2024/02/08 18:26:06;;;;;;;8.52;2.30;;;;;;;17.06;57.06;98912.16;10426649;28;20433;-58
2024/02/08 18:31:14;;;;;;;5.45;1.65;;;;;;;17.12;56.13;98936.84;10428568;28;20060;-61
2024/02/08 18:36:14;;;;;;;5.47;2.03;;;;;;;17.13;56.00;98903.59;10444045;28;20025;-57
2024/02/08 18:41:20;;;;;;;6.00;1.80;;;;;;;17.17;54.59;98910.66;10446235;28;20029;-59
2024/02/08 18:46:23;;;;;;;7.80;1.88;;;;;;;17.16;55.47;98901.03;10425424;28;20472;-59
2024/02/08 18:51:25;;;;;;;5.85;1.60;;;;;;;17.16;54.44;98901.03;10420317;28;20025;-58
2024/02/08 18:56:25;;;;;;;6.53;1.92;;;;;;;17.20;54.89;98885.09;10425883;28;20100;-58
2024/02/08 19:01:25;;;;;;;9.52;2.05;;;;;;;17.20;54.93;98875.16;10422049;28;20047;-58
2024/02/08 19:06:26;;;;;;;3.53;1.53;;;;;;;17.21;54.69;98870.59;10423558;28;20062;-59
2024/02/08 19:11:26;;;;;;;6.15;1.48;;;;;;;17.22;53.65;98877.50;10409907;28;20291;-59
2024/02/08 19:16:29;;;;;;;4.50;1.75;;;;;;;17.22;53.13;98862.22;10408724;28;20128;-58
2024/02/08 19:21:37;;;;;;;3.55;1.65;;;;;;;17.21;54.45;98863.34;10422328;28;20037;-58
2024/02/08 19:26:42;;;;;;;2.28;1.17;;;;;;;17.22;54.90;98869.47;10429068;28;20071;-58
2024/02/08 19:31:46;;;;;;;6.32;1.90;;;;;;;17.25;53.14;98863.44;10426072;28;20036;-56
2024/02/08 19:36:51;;;;;;;4.35;1.30;;;;;;;17.23;52.94;98861.09;10411398;28;20354;-58
2024/02/08 19:41:51;;;;;;;4.38;1.75;;;;;;;17.24;54.26;98837.78;10423230;28;20599;-58
2024/02/08 19:47:03;;;;;;;2.30;1.30;;;;;;;17.23;54.51;98853.06;10414609;28;20082;-58
2024/02/08 19:52:06;;;;;;;4.10;1.60;;;;;;;17.27;54.13;98855.06;10411007;28;20029;-58
2024/02/08 19:57:12;;;;;;;3.80;1.48;;;;;;;17.23;53.57;98830.88;10418442;28;20061;-58
2024/02/08 20:02:30;;;;;;;2.90;1.50;;;;;;;17.23;54.31;98823.59;10422038;28;20037;-58
2024/02/08 20:07:31;;;;;;;5.95;2.30;;;;;;;17.23;52.88;98818.25;10414321;28;20049;-58
2024/02/08 20:12:32;;;;;;;3.83;2.08;;;;;;;17.24;53.08;98808.31;10424824;28;20048;-56
2024/02/08 20:17:32;;;;;;;4.93;2.13;;;;;;;17.23;54.39;98798.72;10421813;28;20073;-58
2024/02/08 20:22:33;;;;;;;7.70;2.40;;;;;;;17.23;53.10;98804.09;10419288;28;20110;-58
2024/02/08 20:27:33;;;;;;;5.03;2.10;;;;;;;17.19;53.50;98793.25;10421028;28;20901;-57
2024/02/08 20:32:33;;;;;;;3.63;2.00;;;;;;;17.20;53.25;98799.41;10415323;28;20329;-58
2024/02/08 20:37:34;;;;;;;4.63;1.67;;;;;;;17.18;52.60;98785.56;10413827;28;20942;-58
2024/02/08 20:42:34;;;;;;;5.47;1.65;;;;;;;17.20;54.23;98783.31;10452948;28;20324;-58
2024/02/08 20:47:36;;;;;;;4.25;2.00;;;;;;;17.21;52.71;98782.22;10428497;28;20033;-59
2024/02/08 20:52:37;;;;;;;4.15;2.10;;;;;;;17.20;53.52;98783.31;10414033;28;20025;-59
2024/02/08 20:57:40;;;;;;;5.13;2.22;;;;;;;17.22;53.15;98771.16;10413333;28;20037;-59
2024/02/08 21:02:40;;;;;;;5.32;2.05;;;;;;;17.25;53.92;98761.66;10413554;28;20587;-58
2024/02/08 21:07:41;;;;;;;5.78;1.60;;;;;;;17.26;52.63;98757.88;10412939;28;20083;-58
2024/02/08 21:12:42;;;;;;;3.17;1.70;;;;;;;17.28;53.37;98761.00;10413137;28;20052;-59
2024/02/08 21:17:45;;;;;;;4.75;1.90;;;;;;;17.33;52.33;98758.13;10411238;28;20366;-59
2024/02/08 21:22:48;;;;;;;1.80;1.23;;;;;;;17.33;52.21;98751.97;10412737;28;20445;-58
2024/02/08 21:27:56;;;;;;;4.47;1.98;;;;;;;17.34;52.60;98764.25;10421947;28;20017;-58
2024/02/08 21:32:57;;;;;;;3.13;1.37;;;;;;;17.33;52.56;98747.41;10427110;28;20635;-58
2024/02/08 21:37:59;;;;;;;3.60;1.40;;;;;;;17.34;53.01;98740.16;10412533;28;20041;-58
2024/02/08 21:42:59;;;;;;;6.80;1.80;;;;;;;17.34;53.06;98732.09;10411967;28;20279;-58
2024/02/08 21:47:59;;;;;;;4.07;1.55;;;;;;;17.35;52.67;98745.16;10411464;28;20032;-58
2024/02/08 21:53:04;;;;;;;4.63;1.97;;;;;;;17.33;52.34;98734.00;10411723;28;20021;-58
2024/02/08 21:58:05;;;;;;;2.80;1.50;;;;;;;17.35;53.36;98718.38;10411212;28;20626;-58
2024/02/08 22:03:07;;;;;;;1.63;1.10;;;;;;;17.38;52.87;98730.31;10411118;28;20028;-58
2024/02/08 22:08:07;;;;;;;2.83;1.48;;;;;;;17.36;53.11;98721.84;10419306;28;20795;-58
2024/02/08 22:13:10;;;;;;;2.97;1.50;;;;;;;17.41;52.77;98726.97;10414942;28;20036;-58
2024/02/08 22:18:11;;;;;;;2.47;1.58;;;;;;;17.43;52.85;98716.72;10409816;28;20292;-59
2024/02/08 22:23:11;;;;;;;2.33;1.35;;;;;;;17.39;53.21;98716.56;10410216;28;20030;-59
2024/02/08 22:28:12;;;;;;;2.43;1.40;;;;;;;17.38;52.90;98700.84;10409971;28;20576;-58
2024/02/08 22:33:13;;;;;;;2.25;1.50;;;;;;;17.39;53.11;98700.50;10409171;28;20296;-58
2024/02/08 22:38:14;;;;;;;5.10;1.50;;;;;;;17.37;52.27;98688.56;10409180;28;20029;-58
2024/02/08 22:43:14;;;;;;;3.38;1.35;;;;;;;17.36;53.30;98682.44;10409801;28;20017;-58
2024/02/08 22:48:15;;;;;;;2.70;1.53;;;;;;;17.39;52.51;98681.75;10409762;28;20025;-58
2024/02/08 22:53:18;;;;;;;3.28;1.88;;;;;;;17.36;52.23;98666.34;10409239;28;20338;-58
2024/02/08 22:58:18;;;;;;;2.70;1.50;;;;;;;17.37;51.81;98664.47;10408468;28;20029;-58
2024/02/08 23:03:24;;;;;;;2.57;1.50;;;;;;;17.37;52.33;98664.47;10409159;28;20038;-58
2024/02/08 23:08:24;;;;;;;2.13;1.40;;;;;;;17.42;52.06;98650.84;10419659;28;20282;-59
2024/02/08 23:13:27;;;;;;;3.10;1.50;;;;;;;17.41;52.21;98644.72;10410872;28;20025;-58
2024/02/08 23:18:27;;;;;;;2.72;1.50;;;;;;;17.41;52.69;98635.91;10408439;28;20898;-58
2024/02/08 23:23:28;;;;;;;3.30;1.57;;;;;;;17.41;51.70;98628.63;10408835;28;20028;-58
2024/02/08 23:28:28;;;;;;;2.30;1.20;;;;;;;17.39;53.43;98617.47;10407454;28;20272;-59
2024/02/08 23:33:30;;;;;;;2.57;1.50;;;;;;;17.41;52.38;98609.88;10409583;28;20026;-58
2024/02/08 23:38:34;;;;;;;2.42;1.48;;;;;;;17.42;53.10;98605.31;10413204;28;20354;-58
2024/02/08 23:43:34;;;;;;;2.00;1.08;;;;;;;17.42;52.40;98591.91;10416537;28;20049;-58
2024/02/08 23:48:36;;;;;;;1.60;1.20;;;;;;;17.41;52.95;98588.47;10407858;28;20108;-58
2024/02/08 23:53:36;;;;;;;2.63;1.20;;;;;;;17.41;52.31;98587.69;10413279;28;20026;-58
2024/02/08 23:58:40;;;;;;;2.08;1.38;;;;;;;17.40;53.03;98560.06;10416056;28;20028;-58
